Time;durP1;ratioP1;P1;durP2;ratioP2;P2;SDS_P1;SDS_P2;PMS_P1;PMS_P2;Temp;Humidity;BMP_temperature;BMP_pressure;BME280_temperature;BME280_humidity;BME280_pressure;Samples;Min_cycle;Max_cycle;Signal;HPM_P1;HPM_P2
2023/09/07 00:00:34;;;;;;;8.15;3.65;;;22.00;99.90;;;;;;6183966;23;20017;-90
2023/09/07 00:02:59;;;;;;;7.97;3.22;;;21.90;99.90;;;;;;6184149;23;20092;-90
2023/09/07 00:05:25;;;;;;;11.13;5.50;;;21.90;99.90;;;;;;6184186;23;20513;-90
2023/09/07 00:07:51;;;;;;;7.50;3.53;;;21.90;99.90;;;;;;6186201;23;20403;-90
2023/09/07 00:10:17;;;;;;;8.27;3.42;;;21.90;99.90;;;;;;6185227;23;20013;-90
2023/09/07 00:12:43;;;;;;;7.90;3.05;;;21.80;99.90;;;;;;6185656;23;20017;-91
2023/09/07 00:15:10;;;;;;;8.32;3.58;;;21.80;99.90;;;;;;6134023;23;20044;-88
2023/09/07 00:17:36;;;;;;;8.00;3.30;;;21.80;99.90;;;;;;6134265;23;20021;-90
2023/09/07 00:20:13;;;;;;;9.32;3.75;;;21.70;99.90;;;;;;6159108;23;20473;-90
2023/09/07 00:22:39;;;;;;;7.32;3.20;;;21.70;99.90;;;;;;6159432;23;20009;-90
2023/09/07 00:25:06;;;;;;;9.20;3.45;;;21.60;99.90;;;;;;6158217;23;20013;-89
2023/09/07 00:27:35;;;;;;;8.18;3.10;;;21.60;99.90;;;;;;6185388;23;20021;-91
2023/09/07 00:30:04;;;;;;;9.50;3.40;;;21.50;99.90;;;;;;6158204;23;20017;-90
2023/09/07 00:32:32;;;;;;;8.15;3.35;;;21.50;99.90;;;;;;6159342;23;20481;-90
2023/09/07 00:34:57;;;;;;;9.10;3.88;;;21.50;99.90;;;;;;6158715;23;20328;-90
2023/09/07 00:37:23;;;;;;;9.15;3.40;;;21.40;99.90;;;;;;6158555;23;20067;-90
2023/09/07 00:39:49;;;;;;;10.00;3.72;;;21.30;99.90;;;;;;6158535;23;20021;-90
2023/09/07 00:42:14;;;;;;;7.22;3.60;;;21.30;99.90;;;;;;6134535;23;20380;-90
2023/09/07 00:44:40;;;;;;;9.30;3.30;;;21.20;99.90;;;;;;6159057;23;20040;-90
2023/09/07 00:47:05;;;;;;;9.45;3.70;;;21.10;99.90;;;;;;6133579;23;20349;-90
2023/09/07 00:49:31;;;;;;;7.80;3.85;;;21.00;99.90;;;;;;6158000;23;20052;-90
2023/09/07 00:51:57;;;;;;;8.93;3.53;;;20.90;99.90;;;;;;6158634;23;20009;-89
2023/09/07 00:54:23;;;;;;;8.13;3.60;;;20.80;99.90;;;;;;6133264;23;20020;-89
2023/09/07 00:56:49;;;;;;;9.43;3.70;;;20.70;99.90;;;;;;6158365;23;20013;-90
2023/09/07 00:59:14;;;;;;;7.05;3.33;;;20.70;99.90;;;;;;6158165;23;20044;-90
2023/09/07 01:01:41;;;;;;;7.30;3.33;;;20.70;99.90;;;;;;6133877;23;20092;-90
2023/09/07 01:04:07;;;;;;;7.68;3.70;;;20.70;99.90;;;;;;6158889;23;20017;-90
2023/09/07 01:06:37;;;;;;;7.50;3.80;;;20.70;99.90;;;;;;6158452;23;20020;-90
2023/09/07 01:09:25;;;;;;;7.38;3.30;;;20.70;99.90;;;;;;6184803;23;20537;-90
2023/09/07 01:11:52;;;;;;;9.35;3.97;;;20.60;99.90;;;;;;6158007;23;20020;-91
2023/09/07 01:14:18;;;;;;;9.73;3.53;;;20.60;99.90;;;;;;6158771;23;20063;-91
2023/09/07 01:16:44;;;;;;;8.57;3.30;;;20.60;99.90;;;;;;6158052;23;20402;-90
2023/09/07 01:19:10;;;;;;;8.32;3.58;;;20.50;99.90;;;;;;6158955;23;20108;-90
2023/09/07 01:21:38;;;;;;;7.95;3.17;;;20.50;99.90;;;;;;6157894;23;20347;-90
2023/09/07 01:24:08;;;;;;;9.90;3.55;;;20.40;99.90;;;;;;6158028;23;20017;-90
2023/09/07 01:26:40;;;;;;;9.45;3.63;;;20.30;99.90;;;;;;6158733;23;20020;-90
2023/09/07 01:29:06;;;;;;;10.27;4.40;;;20.30;99.90;;;;;;6158476;23;20498;-90
2023/09/07 01:31:36;;;;;;;7.75;3.83;;;20.20;99.90;;;;;;6158449;23;20092;-89
2023/09/07 01:34:02;;;;;;;7.35;3.97;;;20.20;99.90;;;;;;6158850;23;20067;-89
2023/09/07 01:36:28;;;;;;;10.00;4.40;;;20.10;99.90;;;;;;6158677;23;20013;-89
2023/09/07 01:38:53;;;;;;;10.35;4.55;;;20.10;99.90;;;;;;6158472;23;20017;-89
2023/09/07 01:41:19;;;;;;;9.48;4.20;;;20.00;99.90;;;;;;6158208;23;20074;-90
2023/09/07 01:43:44;;;;;;;9.25;3.67;;;20.10;99.90;;;;;;6157753;23;20013;-90
2023/09/07 01:46:10;;;;;;;11.85;4.47;;;20.10;99.90;;;;;;6157565;23;20099;-90
2023/09/07 01:48:36;;;;;;;8.43;4.20;;;20.00;99.90;;;;;;6157743;23;20020;-90
2023/09/07 01:51:01;;;;;;;10.57;4.20;;;20.10;99.90;;;;;;6157561;23;20047;-89
2023/09/07 01:53:27;;;;;;;7.30;4.18;;;20.00;99.90;;;;;;6158078;23;20394;-90
2023/09/07 01:55:56;;;;;;;7.57;4.00;;;20.00;99.90;;;;;;6183585;23;20013;-90
2023/09/07 01:58:23;;;;;;;9.80;4.07;;;20.00;99.90;;;;;;6133770;23;20060;-91
2023/09/07 02:00:49;;;;;;;8.70;4.38;;;20.00;99.90;;;;;;6158417;23;20084;-90
2023/09/07 02:03:15;;;;;;;9.27;4.03;;;20.00;99.90;;;;;;6157978;23;20044;-90
2023/09/07 02:05:41;;;;;;;9.15;3.90;;;19.90;99.90;;;;;;6184696;23;20017;-90
2023/09/07 02:08:06;;;;;;;7.95;4.10;;;19.90;99.90;;;;;;6158146;23;20332;-90
2023/09/07 02:10:33;;;;;;;10.02;4.20;;;19.90;99.90;;;;;;6184166;23;20039;-90
2023/09/07 02:12:59;;;;;;;8.55;3.80;;;19.90;99.90;;;;;;6132942;23;20013;-90
2023/09/07 02:15:24;;;;;;;8.85;3.72;;;19.90;99.90;;;;;;6158138;23;20052;-90
2023/09/07 02:17:50;;;;;;;9.02;4.20;;;19.80;99.90;;;;;;6158046;23;20017;-90
2023/09/07 02:20:16;;;;;;;8.52;4.05;;;19.80;99.90;;;;;;6157711;23;20017;-90
2023/09/07 02:22:42;;;;;;;8.95;4.13;;;19.80;99.90;;;;;;6158192;23;20024;-90
2023/09/07 02:25:08;;;;;;;8.88;4.43;;;19.80;99.90;;;;;;6158115;23;20023;-90
2023/09/07 02:27:34;;;;;;;8.85;3.80;;;19.80;99.90;;;;;;6184655;23;20450;-89
2023/09/07 02:29:59;;;;;;;9.23;4.70;;;19.80;99.90;;;;;;6157662;23;20020;-89
2023/09/07 02:32:25;;;;;;;10.02;4.00;;;19.70;99.90;;;;;;6157742;23;20020;-90
2023/09/07 02:34:50;;;;;;;9.88;4.68;;;19.70;99.90;;;;;;6157865;23;20446;-90
2023/09/07 02:37:16;;;;;;;9.77;4.10;;;19.70;99.90;;;;;;6157519;23;20013;-90
2023/09/07 02:39:42;;;;;;;8.48;3.80;;;19.70;99.90;;;;;;6157405;23;20520;-90
2023/09/07 02:42:08;;;;;;;11.30;4.55;;;19.70;99.90;;;;;;6158045;23;20450;-90
2023/09/07 02:44:33;;;;;;;8.25;4.20;;;19.70;99.90;;;;;;6184401;23;20016;-90
2023/09/07 02:46:59;;;;;;;8.95;4.50;;;19.60;99.90;;;;;;6158221;23;20017;-90
2023/09/07 02:49:25;;;;;;;8.68;4.32;;;19.50;99.90;;;;;;6157700;23;20020;-90
2023/09/07 02:51:50;;;;;;;8.95;4.60;;;19.50;99.90;;;;;;6157956;23;20016;-90
2023/09/07 02:54:16;;;;;;;8.20;4.00;;;19.40;99.90;;;;;;6184550;23;20090;-90
2023/09/07 02:56:41;;;;;;;8.65;4.20;;;19.30;99.90;;;;;;6157155;23;20548;-90
2023/09/07 02:59:07;;;;;;;9.10;4.35;;;19.20;99.90;;;;;;6158111;23;20027;-90
2023/09/07 03:01:34;;;;;;;11.00;4.43;;;19.10;99.90;;;;;;6156897;23;20044;-89
2023/09/07 03:03:59;;;;;;;9.15;4.28;;;19.10;99.90;;;;;;6157630;23;20009;-90
2023/09/07 03:06:25;;;;;;;9.30;4.07;;;19.00;99.90;;;;;;6156959;23;20017;-89
2023/09/07 03:08:52;;;;;;;8.25;3.90;;;19.10;99.90;;;;;;6157853;23;20486;-89
2023/09/07 03:11:17;;;;;;;8.48;4.30;;;19.10;99.90;;;;;;6156933;23;20017;-90
2023/09/07 03:13:43;;;;;;;8.15;4.82;;;19.10;99.90;;;;;;6157818;23;20017;-90
2023/09/07 03:16:09;;;;;;;9.73;4.75;;;19.10;99.90;;;;;;6157497;23;20017;-89
2023/09/07 03:18:34;;;;;;;9.82;4.40;;;19.10;99.90;;;;;;6184000;23;20013;-89
2023/09/07 03:21:02;;;;;;;8.45;4.38;;;19.10;99.90;;;;;;6157884;23;20462;-89
2023/09/07 03:23:32;;;;;;;9.02;4.18;;;19.20;99.90;;;;;;6157745;23;20056;-89
2023/09/07 03:25:59;;;;;;;8.57;4.38;;;19.20;99.90;;;;;;6158054;23;20020;-89
2023/09/07 03:28:25;;;;;;;9.55;4.65;;;19.20;99.90;;;;;;6157667;23;20037;-90
2023/09/07 03:30:51;;;;;;;8.65;4.63;;;19.20;99.90;;;;;;6158076;23;20443;-90
2023/09/07 03:33:17;;;;;;;10.65;4.72;;;19.20;99.90;;;;;;6158110;23;20021;-89
2023/09/07 03:35:43;;;;;;;9.02;4.70;;;19.20;99.90;;;;;;6157978;23;20059;-90
2023/09/07 03:38:08;;;;;;;8.60;5.13;;;19.20;99.90;;;;;;6157400;23;20507;-90
2023/09/07 03:40:34;;;;;;;12.23;4.97;;;19.20;99.90;;;;;;6157481;23;20017;-89
2023/09/07 03:43:00;;;;;;;7.82;4.60;;;19.20;99.90;;;;;;6158901;23;20378;-89
2023/09/07 03:45:25;;;;;;;9.25;5.20;;;19.20;99.90;;;;;;6158792;23;20013;-89
2023/09/07 03:47:51;;;;;;;8.25;4.57;;;19.20;99.90;;;;;;6159190;23;20009;-89
2023/09/07 03:50:17;;;;;;;8.32;5.32;;;19.20;99.90;;;;;;6185362;23;20043;-89
2023/09/07 03:52:42;;;;;;;8.23;4.82;;;19.20;99.90;;;;;;6159296;23;20517;-90
2023/09/07 03:55:08;;;;;;;9.48;5.13;;;19.20;99.90;;;;;;6159171;23;20017;-90
2023/09/07 03:57:34;;;;;;;9.32;5.25;;;19.20;99.90;;;;;;6185516;23;20009;-90
2023/09/07 04:00:00;;;;;;;9.10;5.38;;;19.20;99.90;;;;;;6159273;23;20601;-90
2023/09/07 04:02:25;;;;;;;8.20;3.70;;;19.20;99.90;;;;;;6185702;23;20005;-90
2023/09/07 04:04:55;;;;;;;10.35;4.85;;;19.10;99.90;;;;;;6158862;23;20463;-90
2023/09/07 04:07:20;;;;;;;9.30;4.97;;;19.10;99.90;;;;;;6159626;23;20013;-90
2023/09/07 04:09:46;;;;;;;9.07;5.43;;;19.10;99.90;;;;;;6159101;23;20032;-90
2023/09/07 04:12:12;;;;;;;9.52;5.95;;;19.10;99.90;;;;;;6134422;23;20402;-90
2023/09/07 04:14:38;;;;;;;9.35;5.30;;;19.00;99.90;;;;;;6159091;23;20132;-90
2023/09/07 04:17:04;;;;;;;12.70;5.50;;;19.00;99.90;;;;;;6158085;23;20017;-90
2023/09/07 04:19:30;;;;;;;9.63;5.45;;;19.00;99.90;;;;;;6184543;23;20032;-89
2023/09/07 04:21:57;;;;;;;11.70;5.75;;;19.00;99.90;;;;;;6134418;23;20324;-90
2023/09/07 04:24:23;;;;;;;10.65;5.63;;;19.00;99.90;;;;;;6159554;23;20013;-89
2023/09/07 04:26:49;;;;;;;9.07;5.45;;;18.90;99.90;;;;;;6185944;23;20039;-90
2023/09/07 04:29:15;;;;;;;8.05;4.55;;;19.00;99.90;;;;;;6158855;23;20084;-90
2023/09/07 04:31:41;;;;;;;10.10;5.75;;;18.90;99.90;;;;;;6134560;23;20052;-90
2023/09/07 04:34:07;;;;;;;8.43;5.40;;;18.80;99.90;;;;;;6159403;23;20017;-89
2023/09/07 04:36:32;;;;;;;10.95;6.07;;;18.80;99.90;;;;;;6159271;23;20013;-90
2023/09/07 04:38:58;;;;;;;8.55;5.63;;;18.80;99.90;;;;;;6158169;23;20096;-90
2023/09/07 04:41:24;;;;;;;9.90;5.50;;;18.80;99.90;;;;;;6158461;23;20017;-89
2023/09/07 04:43:49;;;;;;;9.50;5.90;;;18.80;99.90;;;;;;6158567;23;20017;-90
2023/09/07 04:46:15;;;;;;;12.73;5.75;;;18.80;99.90;;;;;;6158902;23;20013;-89
2023/09/07 04:48:41;;;;;;;9.27;4.97;;;18.80;99.90;;;;;;6158650;23;20095;-89
2023/09/07 04:51:09;;;;;;;10.35;5.50;;;18.80;99.90;;;;;;6156721;23;20017;-89
2023/09/07 04:53:37;;;;;;;9.27;5.18;;;18.80;99.90;;;;;;6158621;23;20092;-89
2023/09/07 04:56:03;;;;;;;10.23;5.82;;;18.80;99.90;;;;;;6157777;23;20024;-89
2023/09/07 04:58:29;;;;;;;9.18;5.38;;;18.80;99.90;;;;;;6157628;23;20040;-89
2023/09/07 05:01:02;;;;;;;8.70;6.18;;;18.80;99.90;;;;;;6158480;23;20021;-88
2023/09/07 05:03:27;;;;;;;10.40;5.90;;;18.70;99.90;;;;;;6158535;23;20414;-89
2023/09/07 05:05:53;;;;;;;9.82;5.57;;;18.70;99.90;;;;;;6158462;23;20040;-88
2023/09/07 05:08:20;;;;;;;9.88;6.30;;;18.70;99.90;;;;;;6133264;23;20013;-88
2023/09/07 05:10:45;;;;;;;10.55;5.05;;;18.60;99.90;;;;;;6157904;23;20017;-88
2023/09/07 05:13:11;;;;;;;9.43;6.10;;;18.60;99.90;;;;;;6157562;23;20017;-89
2023/09/07 05:15:36;;;;;;;10.15;5.75;;;18.60;99.90;;;;;;6157584;23;20091;-88
2023/09/07 05:18:02;;;;;;;10.55;6.20;;;18.60;99.90;;;;;;6157673;23;20068;-88
2023/09/07 05:20:30;;;;;;;9.45;5.72;;;18.60;99.90;;;;;;6157741;23;20477;-88
2023/09/07 05:22:56;;;;;;;11.15;6.30;;;18.60;99.90;;;;;;6184718;23;20387;-88
2023/09/07 05:25:22;;;;;;;9.32;5.95;;;18.60;99.90;;;;;;6157913;23;20092;-88
2023/09/07 05:27:48;;;;;;;9.70;5.85;;;18.60;99.90;;;;;;6183657;23;20013;-89
2023/09/07 05:30:14;;;;;;;10.98;6.43;;;18.60;99.90;;;;;;6157505;23;20044;-89
2023/09/07 05:32:41;;;;;;;9.90;6.03;;;18.60;99.90;;;;;;6157759;23;20025;-89
2023/09/07 05:35:07;;;;;;;11.55;6.25;;;18.60;99.90;;;;;;6158035;23;20055;-88
2023/09/07 05:37:33;;;;;;;10.35;6.53;;;18.60;99.90;;;;;;6157346;23;20063;-88
2023/09/07 05:39:58;;;;;;;10.30;6.25;;;18.60;99.90;;;;;;6156032;23;20021;-88
2023/09/07 05:42:25;;;;;;;11.13;6.60;;;18.60;99.90;;;;;;6157411;23;20013;-88
2023/09/07 05:44:51;;;;;;;12.05;6.47;;;18.60;99.90;;;;;;6157624;23;20091;-89
2023/09/07 05:47:17;;;;;;;9.85;6.60;;;18.60;99.90;;;;;;6157805;23;20013;-89
2023/09/07 05:49:43;;;;;;;9.55;6.38;;;18.60;99.90;;;;;;6158264;23;20020;-88
2023/09/07 05:52:08;;;;;;;10.07;6.78;;;18.60;99.90;;;;;;6157744;23;20067;-89
2023/09/07 05:54:34;;;;;;;9.18;6.57;;;18.70;99.90;;;;;;6157500;23;20009;-89
2023/09/07 05:56:59;;;;;;;10.13;7.35;;;18.70;99.90;;;;;;6157299;23;20064;-89
2023/09/07 05:59:25;;;;;;;11.13;5.88;;;18.70;99.90;;;;;;6184139;23;20446;-89
2023/09/07 06:01:51;;;;;;;10.52;6.80;;;18.70;99.90;;;;;;6157301;23;20013;-89
2023/09/07 06:04:16;;;;;;;11.10;7.15;;;18.70;99.90;;;;;;6157383;23;20442;-89
2023/09/07 06:06:42;;;;;;;9.57;7.28;;;18.80;99.90;;;;;;6157398;23;20020;-88
2023/09/07 06:09:08;;;;;;;12.48;7.47;;;18.70;99.90;;;;;;6157599;23;20009;-89
2023/09/07 06:11:34;;;;;;;11.05;6.78;;;18.80;99.90;;;;;;6157179;23;20021;-89
2023/09/07 06:14:00;;;;;;;10.73;7.20;;;18.80;99.90;;;;;;6157957;23;20106;-89
2023/09/07 06:16:25;;;;;;;10.98;6.35;;;18.90;99.90;;;;;;6157401;23;20647;-89
2023/09/07 06:18:51;;;;;;;13.70;7.68;;;18.90;99.90;;;;;;6156585;23;20013;-89
2023/09/07 06:21:16;;;;;;;11.25;7.32;;;18.90;99.90;;;;;;6157589;23;20395;-89
2023/09/07 06:23:43;;;;;;;10.55;7.50;;;18.90;99.90;;;;;;6183430;23;20013;-89
2023/09/07 06:26:08;;;;;;;11.85;7.32;;;19.00;99.90;;;;;;6157542;23;20008;-89
2023/09/07 06:28:34;;;;;;;12.70;7.60;;;19.00;99.90;;;;;;6156919;23;20036;-90
2023/09/07 06:30:59;;;;;;;11.77;7.65;;;19.00;99.90;;;;;;6157203;23;20103;-89
2023/09/07 06:33:25;;;;;;;9.63;6.47;;;19.10;99.90;;;;;;6157421;23;20017;-89
2023/09/07 06:35:50;;;;;;;11.45;7.30;;;19.10;99.90;;;;;;6156645;23;20017;-90
2023/09/07 06:38:16;;;;;;;13.05;7.57;;;19.10;99.90;;;;;;6157108;23;20406;-90
2023/09/07 06:40:48;;;;;;;12.38;7.57;;;19.10;99.90;;;;;;6157341;23;20017;-90
2023/09/07 06:43:13;;;;;;;12.32;7.75;;;19.20;99.90;;;;;;6157147;23;20017;-90
2023/09/07 06:45:39;;;;;;;12.48;7.93;;;19.20;99.90;;;;;;6157088;23;20370;-89
2023/09/07 06:48:05;;;;;;;10.77;7.82;;;19.30;99.90;;;;;;6157082;23;20016;-90
2023/09/07 06:50:30;;;;;;;11.40;7.63;;;19.30;99.90;;;;;;6156789;23;20506;-90
2023/09/07 06:52:56;;;;;;;13.10;7.43;;;19.40;99.90;;;;;;6156903;23;20100;-90
2023/09/07 06:55:21;;;;;;;11.43;7.22;;;19.40;99.90;;;;;;6155908;23;20028;-90
2023/09/07 06:57:47;;;;;;;12.18;8.43;;;19.50;99.90;;;;;;6157243;23;20366;-90
2023/09/07 07:00:13;;;;;;;12.23;8.05;;;19.60;99.90;;;;;;6182881;23;20009;-90
2023/09/07 07:02:39;;;;;;;11.15;7.50;;;19.60;99.90;;;;;;6156843;23;20071;-90
2023/09/07 07:05:05;;;;;;;12.40;7.60;;;19.60;99.90;;;;;;6166012;23;20092;-88
2023/09/07 07:07:31;;;;;;;10.77;7.35;;;19.70;99.90;;;;;;6173923;23;20017;-89
2023/09/07 07:09:56;;;;;;;12.27;7.80;;;19.80;99.90;;;;;;6159433;23;20019;-89
2023/09/07 07:12:22;;;;;;;12.07;7.57;;;19.80;99.90;;;;;;6159005;23;20461;-89
2023/09/07 07:14:47;;;;;;;11.65;7.60;;;19.90;99.90;;;;;;6160095;23;20021;-89
2023/09/07 07:17:13;;;;;;;10.98;7.55;;;20.00;99.90;;;;;;6160646;23;20027;-89
2023/09/07 07:19:39;;;;;;;13.70;8.05;;;20.00;99.90;;;;;;6160030;23;20028;-89
2023/09/07 07:22:05;;;;;;;12.95;7.35;;;20.10;99.90;;;;;;6160278;23;20531;-89
2023/09/07 07:24:30;;;;;;;12.25;7.40;;;20.20;99.90;;;;;;6159775;23;20009;-89
2023/09/07 07:26:56;;;;;;;9.60;6.90;;;20.20;99.90;;;;;;6159220;23;20477;-90
2023/09/07 07:29:21;;;;;;;10.15;7.22;;;20.30;99.90;;;;;;6185124;23;20016;-89
2023/09/07 07:31:47;;;;;;;10.07;6.82;;;20.40;99.90;;;;;;6157623;23;20021;-89
2023/09/07 07:34:13;;;;;;;12.32;7.70;;;20.40;99.90;;;;;;6156971;23;20009;-89
2023/09/07 07:36:38;;;;;;;9.77;7.10;;;20.50;99.90;;;;;;6157978;23;20075;-89
2023/09/07 07:39:07;;;;;;;10.77;7.00;;;20.60;99.90;;;;;;6157785;23;20097;-89
2023/09/07 07:41:33;;;;;;;10.93;7.05;;;20.70;99.90;;;;;;6157305;23;20694;-90
2023/09/07 07:43:58;;;;;;;10.98;7.35;;;20.70;99.90;;;;;;6157840;23;20017;-89
2023/09/07 07:46:24;;;;;;;16.63;7.30;;;20.80;99.90;;;;;;6159012;23;20017;-89
2023/09/07 07:48:50;;;;;;;10.48;7.32;;;20.90;99.90;;;;;;6133810;23;20455;-90
2023/09/07 07:51:15;;;;;;;9.40;6.95;;;21.00;99.90;;;;;;6159008;23;20024;-90
2023/09/07 07:53:41;;;;;;;11.70;6.63;;;21.10;99.90;;;;;;6158609;23;20073;-89
2023/09/07 07:56:15;;;;;;;9.80;6.20;;;21.20;99.90;;;;;;6185096;23;20332;-90
2023/09/07 07:58:40;;;;;;;15.63;6.40;;;21.20;99.90;;;;;;6159030;23;20412;-89
2023/09/07 08:01:17;;;;;;;10.48;6.25;;;21.30;99.90;;;;;;6134532;23;20013;-89
2023/09/07 08:03:43;;;;;;;11.20;6.22;;;21.40;99.90;;;;;;6159275;23;20017;-89
2023/09/07 08:06:10;;;;;;;9.90;5.57;;;21.40;99.90;;;;;;6159309;23;20020;-89
2023/09/07 08:08:36;;;;;;;10.88;5.95;;;21.50;99.90;;;;;;6159240;23;20162;-89
2023/09/07 08:11:05;;;;;;;10.02;5.97;;;21.60;99.90;;;;;;6134406;23;20045;-89
2023/09/07 08:13:35;;;;;;;9.93;5.57;;;21.70;99.90;;;;;;6158979;23;20063;-90
2023/09/07 08:16:04;;;;;;;11.27;6.85;;;21.80;99.90;;;;;;6159098;23;20012;-89
2023/09/07 08:18:32;;;;;;;9.07;5.43;;;21.90;99.90;;;;;;6158602;23;20017;-90
2023/09/07 08:20:58;;;;;;;9.75;5.50;;;21.90;99.90;;;;;;6134358;23;20023;-90
2023/09/07 08:23:23;;;;;;;9.13;5.90;;;22.00;99.90;;;;;;6158701;23;20462;-89
2023/09/07 08:25:51;;;;;;;9.02;5.57;;;22.10;99.90;;;;;;6158573;23;20064;-89
2023/09/07 08:28:18;;;;;;;10.68;5.45;;;22.20;99.90;;;;;;6158274;23;20013;-89
2023/09/07 08:30:44;;;;;;;10.65;5.35;;;22.30;99.90;;;;;;6158508;23;20024;-90
2023/09/07 08:33:10;;;;;;;9.07;5.18;;;22.40;99.90;;;;;;6158645;23;20013;-90
2023/09/07 08:35:37;;;;;;;9.23;5.15;;;22.40;99.90;;;;;;6134096;23;20092;-90
2023/09/07 08:38:08;;;;;;;10.60;5.40;;;22.50;99.90;;;;;;6158537;23;20059;-89
2023/09/07 08:40:35;;;;;;;8.18;4.88;;;22.60;99.90;;;;;;6157078;23;20089;-90
2023/09/07 08:43:03;;;;;;;8.93;5.15;;;22.70;99.90;;;;;;6158451;23;20020;-90
2023/09/07 08:45:31;;;;;;;10.32;6.55;;;22.80;99.90;;;;;;6158261;23;20128;-89
2023/09/07 08:47:58;;;;;;;10.65;7.35;;;22.80;99.90;;;;;;6158762;23;20044;-89
2023/09/07 08:50:24;;;;;;;11.48;5.95;;;22.90;99.90;;;;;;6158078;23;20017;-90
2023/09/07 08:52:52;;;;;;;9.50;4.95;;;23.00;99.90;;;;;;6157700;23;20096;-90
2023/09/07 08:55:17;;;;;;;8.85;4.85;;;23.10;99.90;;;;;;6158589;23;20062;-90
2023/09/07 08:57:43;;;;;;;8.27;4.53;;;23.20;99.90;;;;;;6158401;23;20382;-90
2023/09/07 09:00:15;;;;;;;9.55;5.40;;;23.30;99.90;;;;;;6184337;23;20088;-90
2023/09/07 09:02:41;;;;;;;7.90;4.72;;;23.40;99.90;;;;;;6184637;23;20024;-90
2023/09/07 09:05:10;;;;;;;11.63;4.72;;;23.50;99.90;;;;;;6133695;23;20024;-90
2023/09/07 09:07:36;;;;;;;9.18;4.63;;;23.50;99.90;;;;;;6133865;23;20009;-90
2023/09/07 09:10:09;;;;;;;9.18;4.40;;;23.60;99.90;;;;;;6158064;23;20063;-90
2023/09/07 09:12:34;;;;;;;9.13;4.80;;;23.70;99.90;;;;;;6158167;23;20020;-90
2023/09/07 09:15:03;;;;;;;12.43;5.78;;;23.80;99.60;;;;;;6158257;23;20017;-90
2023/09/07 09:17:29;;;;;;;9.43;4.40;;;23.80;99.50;;;;;;6184296;23;20024;-90
2023/09/07 09:19:55;;;;;;;9.90;4.78;;;23.90;97.70;;;;;;6157845;23;20359;-90
2023/09/07 09:22:21;;;;;;;8.45;4.47;;;24.10;96.40;;;;;;6158289;23;20020;-90
2023/09/07 09:24:50;;;;;;;8.30;4.10;;;24.10;95.70;;;;;;6157965;23;20017;-90
2023/09/07 09:27:16;;;;;;;8.27;4.22;;;24.20;95.50;;;;;;6133745;23;20024;-90
2023/09/07 09:29:42;;;;;;;8.10;4.20;;;24.30;95.70;;;;;;6133244;23;20413;-90
2023/09/07 09:32:08;;;;;;;9.20;4.47;;;24.40;97.00;;;;;;6157957;23;20088;-89
2023/09/07 09:34:35;;;;;;;9.73;4.13;;;24.50;97.20;;;;;;6184174;23;20009;-90
2023/09/07 09:37:03;;;;;;;10.27;4.60;;;24.60;96.90;;;;;;6158039;23;20040;-90
2023/09/07 09:39:29;;;;;;;8.82;4.30;;;24.70;96.60;;;;;;6157699;23;20009;-90
2023/09/07 09:41:56;;;;;;;9.38;4.20;;;24.80;95.70;;;;;;6158088;23;20084;-89
2023/09/07 09:44:26;;;;;;;9.18;4.28;;;24.80;94.50;;;;;;6157747;23;20013;-90
2023/09/07 09:46:55;;;;;;;9.65;4.60;;;24.90;92.40;;;;;;6158620;23;20013;-91
2023/09/07 09:49:22;;;;;;;10.00;4.70;;;25.00;93.20;;;;;;6157422;23;20055;-90
2023/09/07 09:51:51;;;;;;;7.68;3.67;;;25.10;94.00;;;;;;6157904;23;20052;-91
2023/09/07 09:54:20;;;;;;;8.73;4.28;;;25.20;93.00;;;;;;6184035;23;20009;-91
2023/09/07 09:56:46;;;;;;;7.88;4.30;;;25.20;89.50;;;;;;6157384;23;20013;-90
2023/09/07 09:59:13;;;;;;;8.48;4.30;;;25.30;90.90;;;;;;6157123;23;20020;-91
2023/09/07 10:01:47;;;;;;;9.27;4.20;;;25.40;89.50;;;;;;6157395;23;20023;-90
2023/09/07 10:04:16;;;;;;;8.45;4.30;;;25.50;90.20;;;;;;6157342;23;20459;-90
2023/09/07 10:07:14;;;;;;;8.45;4.20;;;25.50;89.60;;;;;;6157594;23;20013;-90
2023/09/07 10:09:48;;;;;;;14.88;4.20;;;25.70;89.10;;;;;;5128841;27;20419;-90
2023/09/07 10:12:13;;;;;;;8.93;4.25;;;25.70;86.50;;;;;;5099670;28;20094;-91
2023/09/07 10:14:44;;;;;;;9.85;4.30;;;25.80;86.40;;;;;;5113804;28;20043;-90
2023/09/07 10:17:21;;;;;;;9.15;4.30;;;25.90;86.90;;;;;;5098849;28;20172;-90
2023/09/07 10:19:51;;;;;;;8.05;4.40;;;25.90;87.60;;;;;;5098491;28;20035;-90
2023/09/07 10:22:23;;;;;;;9.05;4.25;;;26.10;87.10;;;;;;5097566;28;20068;-90
2023/09/07 10:24:59;;;;;;;9.88;4.13;;;26.20;86.60;;;;;;5098564;28;20032;-90
2023/09/07 10:27:24;;;;;;;9.63;4.57;;;26.30;87.40;;;;;;5098659;28;20040;-90
2023/09/07 10:29:54;;;;;;;13.10;4.43;;;26.40;87.60;;;;;;5096789;28;20036;-90
2023/09/07 10:32:19;;;;;;;9.93;4.60;;;26.50;85.80;;;;;;5113617;27;20054;-90
2023/09/07 10:34:45;;;;;;;7.85;3.88;;;26.60;86.20;;;;;;5113878;28;20483;-90
2023/09/07 10:37:15;;;;;;;9.05;4.05;;;26.60;86.10;;;;;;5132366;27;20028;-90
2023/09/07 10:39:45;;;;;;;8.55;4.30;;;26.70;85.20;;;;;;5106465;28;20036;-90
2023/09/07 10:42:24;;;;;;;9.70;4.30;;;26.80;83.60;;;;;;5124622;28;20039;-90
2023/09/07 10:44:50;;;;;;;8.75;4.35;;;26.90;83.60;;;;;;5107264;28;20050;-89
2023/09/07 10:47:16;;;;;;;12.00;4.70;;;27.00;84.00;;;;;;5125313;27;20157;-91
2023/09/07 10:49:42;;;;;;;9.10;4.30;;;27.00;82.80;;;;;;5107621;28;20051;-90
2023/09/07 10:52:08;;;;;;;9.57;5.00;;;27.10;82.30;;;;;;5114808;28;20035;-91
2023/09/07 10:54:34;;;;;;;7.80;4.10;;;27.20;81.40;;;;;;5080006;28;20036;-90
2023/09/07 10:57:08;;;;;;;11.35;5.53;;;27.30;80.80;;;;;;5096317;28;20115;-90
2023/09/07 10:59:33;;;;;;;11.63;6.75;;;27.40;80.20;;;;;;5097077;28;20048;-90
2023/09/07 11:02:06;;;;;;;9.90;4.90;;;27.40;79.40;;;;;;5113330;28;20039;-90
2023/09/07 11:04:32;;;;;;;8.25;4.20;;;27.60;79.90;;;;;;5104619;28;20038;-90
2023/09/07 11:06:57;;;;;;;9.05;4.25;;;27.60;78.30;;;;;;5116369;28;20040;-90
2023/09/07 11:09:23;;;;;;;9.30;4.47;;;27.70;77.60;;;;;;5086945;28;20040;-91
2023/09/07 11:11:49;;;;;;;8.50;4.13;;;27.80;77.40;;;;;;5086736;28;20139;-90
2023/09/07 11:14:14;;;;;;;7.90;4.07;;;27.90;76.20;;;;;;5087268;28;20043;-90
2023/09/07 11:16:40;;;;;;;9.43;3.75;;;27.90;75.50;;;;;;5086637;28;20036;-90
2023/09/07 11:19:07;;;;;;;7.90;3.90;;;28.00;75.30;;;;;;5085006;28;20134;-90
2023/09/07 11:21:35;;;;;;;7.78;3.97;;;28.10;75.50;;;;;;5056251;28;20044;-91
2023/09/07 11:24:04;;;;;;;8.63;4.22;;;28.10;74.30;;;;;;5072816;28;20643;-90
2023/09/07 11:26:40;;;;;;;8.52;4.03;;;28.20;74.00;;;;;;5089757;28;20079;-90
2023/09/07 11:29:05;;;;;;;7.97;4.18;;;28.30;74.00;;;;;;5072978;28;20059;-91
2023/09/07 11:31:32;;;;;;;9.20;3.97;;;28.40;73.80;;;;;;5073701;28;20687;-90
2023/09/07 11:33:57;;;;;;;9.52;4.03;;;28.50;72.90;;;;;;5091649;28;20043;-91
2023/09/07 11:36:24;;;;;;;9.05;4.05;;;28.60;72.10;;;;;;5076295;28;20032;-91
2023/09/07 11:38:50;;;;;;;9.52;3.90;;;28.70;71.30;;;;;;5075942;28;20089;-90
2023/09/07 11:41:15;;;;;;;7.82;3.63;;;28.80;72.50;;;;;;5109656;28;20483;-91
2023/09/07 11:43:41;;;;;;;9.52;3.95;;;28.80;71.10;;;;;;5109744;28;20040;-91
2023/09/07 11:46:07;;;;;;;9.10;3.67;;;29.00;69.90;;;;;;5068303;28;20043;-91
2023/09/07 11:48:34;;;;;;;10.70;4.25;;;29.00;69.60;;;;;;5065959;28;20412;-92
2023/09/07 11:51:00;;;;;;;8.15;4.10;;;29.10;69.80;;;;;;5100579;28;20047;-91
2023/09/07 11:53:26;;;;;;;13.80;3.83;;;29.20;69.70;;;;;;5095438;28;20040;-91
2023/09/07 11:55:51;;;;;;;8.77;3.58;;;29.40;70.00;;;;;;5079876;28;20033;-91
2023/09/07 11:58:17;;;;;;;8.60;4.03;;;29.40;67.60;;;;;;5064572;28;20036;-92
2023/09/07 12:00:43;;;;;;;8.30;3.72;;;29.50;68.00;;;;;;5058027;28;20032;-91
2023/09/07 12:03:09;;;;;;;9.70;3.90;;;29.60;67.40;;;;;;5084818;28;20040;-92
2023/09/07 12:05:36;;;;;;;9.30;4.22;;;29.70;67.30;;;;;;5067924;28;20032;-92
2023/09/07 12:08:03;;;;;;;8.63;4.03;;;29.80;66.50;;;;;;5078319;28;20069;-92
2023/09/07 12:10:29;;;;;;;8.82;3.95;;;29.90;67.30;;;;;;5064715;28;20044;-92
2023/09/07 12:12:54;;;;;;;7.80;3.78;;;30.00;67.30;;;;;;5104375;28;20062;-91
2023/09/07 12:15:20;;;;;;;8.00;3.88;;;30.10;67.60;;;;;;5107647;28;20502;-92
2023/09/07 12:17:47;;;;;;;10.27;3.83;;;30.30;66.80;;;;;;5107822;28;20127;-92
2023/09/07 12:20:14;;;;;;;9.82;3.70;;;30.40;65.70;;;;;;5090379;28;20035;-92
2023/09/07 12:22:40;;;;;;;9.35;3.97;;;30.50;65.10;;;;;;5108039;28;20400;-92
2023/09/07 12:25:06;;;;;;;7.97;3.90;;;30.70;64.90;;;;;;5074599;28;20067;-92
2023/09/07 12:27:34;;;;;;;9.38;3.80;;;30.80;64.40;;;;;;5108913;28;20040;-93
2023/09/07 12:30:00;;;;;;;8.98;3.60;;;30.90;64.30;;;;;;5109244;28;20040;-92
2023/09/07 12:32:25;;;;;;;7.35;3.45;;;31.10;64.30;;;;;;5092867;28;20028;-92
2023/09/07 12:34:53;;;;;;;8.07;3.33;;;31.30;64.40;;;;;;5108913;28;20613;-92
2023/09/07 12:37:23;;;;;;;7.50;3.60;;;31.50;64.00;;;;;;5074432;28;20044;-92
2023/09/07 12:39:49;;;;;;;8.27;3.78;;;31.70;63.60;;;;;;5108905;28;20122;-92